KSPI/SPI METAR and TAF weather

Enter ICAO airport designator
Station Type Date Time Source
KSPI METAR 2022/06/27 08:52 UTC NOAA

KSPI 270852Z AUTO 30003KT 10SM CLR 13/11 A3022 RMK AO2 SLP232 T01330106 57002


Station Type Date Time Source
KSPI Decoded METAR 2022/06/27 08:52 UTC NOAA

ABRAHAM LINCOLN CAPITAL AIRPORT , IL, United States (KSPI) 39-51N 89-41W 181M
Jun 27, 2022 - 04:52 AM EDT / 2022.06.27 0852 UTC
Wind: from the WNW (300 degrees) at 3 MPH (3 KT):0
Visibility: 10 mile(s):0
Sky conditions: clear
Temperature: 55.9 F (13.3 C)
Dew Point: 51.1 F (10.6 C)
Relative Humidity: 83%
Pressure (altimeter): 30.22 in. Hg (1023 hPa)
Pressure tendency: 0.01 inches (0.2 hPa) lower than three hours ago
ob: KSPI 270852Z AUTO 30003KT 10SM CLR 13/11 A3022 RMK AO2 SLP232 T01330106 57002
cycle: 9

Station Type Date Time Source
KSPI TAF 2022/06/27 06:22 UTC NOAA

TAF KSPI 270520Z 2706/2806 32005KT P6SM FEW250
FM271700 34008KT P6SM FEW050 SCT250
FM280000 VRB03KT P6SM FEW250

Example: see airport list